createdAt,value
2023-03-03T00:00:21.353Z,14.5
2023-03-03T00:10:22.202Z,14.4
2023-03-03T00:20:22.562Z,14.4
2023-03-03T00:30:22.328Z,14.4
2023-03-03T00:40:22.619Z,14.4
2023-03-03T00:50:22.559Z,14.3
2023-03-03T01:00:23.011Z,14.4
2023-03-03T01:10:23.767Z,14.8
2023-03-03T01:20:23.494Z,14.4
2023-03-03T01:30:23.872Z,14.4
2023-03-03T01:40:24.537Z,14.9
2023-03-03T01:50:25.001Z,14.4
2023-03-03T02:00:24.828Z,14.5
2023-03-03T02:10:25.145Z,14.4
2023-03-03T02:20:25.499Z,14.8
2023-03-03T02:30:26.374Z,14.4
2023-03-03T02:40:26.702Z,14.9
2023-03-03T02:50:27.063Z,14.4
2023-03-03T03:10:09.229Z,14.5
2023-03-03T03:20:09.128Z,14.4
2023-03-03T03:30:08.767Z,14.5
2023-03-03T03:40:09.880Z,14.4
2023-03-03T03:50:10.386Z,14.3
2023-03-03T04:00:09.926Z,14.7
2023-03-03T04:10:12.442Z,14.5
2023-03-03T04:20:14.734Z,14.8
2023-03-03T04:30:16.434Z,14.5
2023-03-03T04:40:18.248Z,14.4
2023-03-03T04:50:19.961Z,14.8
2023-03-03T05:00:20.737Z,14.4
2023-03-03T05:10:21.246Z,14.8
2023-03-03T05:20:21.350Z,14.4
2023-03-03T05:30:21.402Z,14.5
2023-03-03T05:40:21.099Z,14.4
2023-03-03T05:50:21.568Z,14.4
2023-03-03T06:00:21.840Z,14.6
2023-03-03T06:10:21.728Z,14.4
2023-03-03T06:20:21.541Z,14.5
2023-03-03T06:30:22.141Z,14.4
2023-03-03T06:40:22.224Z,14.4
2023-03-03T06:50:22.378Z,14.5
2023-03-03T07:00:23.471Z,14.5
2023-03-03T07:10:23.651Z,14.5
2023-03-03T07:20:23.470Z,14.6
2023-03-03T07:30:24.450Z,14.8
2023-03-03T07:40:24.978Z,14.9
2023-03-03T07:50:25.419Z,14.6
2023-03-03T08:00:25.753Z,14.6
2023-03-03T08:10:25.958Z,14.8
2023-03-03T08:20:26.283Z,15.3
2023-03-03T08:30:27.014Z,14.8
2023-03-03T08:40:27.120Z,14.7
2023-03-03T08:50:27.318Z,14.8
2023-03-03T09:10:07.723Z,14.8
2023-03-03T09:20:08.627Z,14.8
2023-03-03T09:30:10.592Z,15
2023-03-03T09:40:12.217Z,14.9
2023-03-03T09:50:13.005Z,15.2
2023-03-03T10:00:14.001Z,15
2023-03-03T10:10:16.538Z,14.9
2023-03-03T10:20:18.921Z,14.9
2023-03-03T10:30:33.343Z,15.1
2023-03-03T10:40:22.795Z,15
2023-03-03T10:50:23.932Z,14.9
2023-03-03T11:00:26.453Z,15.5
2023-03-03T11:10:27.396Z,15.1
2023-03-03T11:20:27.282Z,15
2023-03-03T11:30:28.595Z,15.1
2023-03-03T11:40:29.113Z,15.1
2023-03-03T11:50:29.810Z,15.2
2023-03-03T12:00:30.755Z,15.2
2023-03-03T12:10:32.273Z,15.1
2023-03-03T12:20:32.912Z,15.1
2023-03-03T12:30:34.277Z,15.1
2023-03-03T12:40:34.403Z,15.2
2023-03-03T12:50:34.998Z,15.2
2023-03-03T13:00:36.116Z,15.1
2023-03-03T13:10:37.025Z,15.3
2023-03-03T13:20:37.792Z,15.1
2023-03-03T13:30:38.373Z,15.2
2023-03-03T13:40:39.027Z,15.6
2023-03-03T13:50:40.402Z,15.3
2023-03-03T14:00:39.593Z,15.3
2023-03-03T14:10:40.525Z,15.1
2023-03-03T14:20:40.745Z,15.4
2023-03-03T14:30:41.391Z,15.3
2023-03-03T14:40:42.630Z,15.6
2023-03-03T14:50:42.793Z,15.3
2023-03-03T15:10:08.751Z,15.3
2023-03-03T15:20:08.920Z,15.8
2023-03-03T15:30:09.258Z,15.2
2023-03-03T15:40:09.357Z,15.2
2023-03-03T15:50:09.883Z,15.3
2023-03-03T16:00:10.005Z,15.3
2023-03-03T16:10:11.413Z,15.1
2023-03-03T16:20:12.538Z,15.3
2023-03-03T16:30:14.542Z,15.1
2023-03-03T16:40:15.973Z,15.3
2023-03-03T16:50:18.158Z,15.3
2023-03-03T17:00:19.205Z,15.2
2023-03-03T17:10:19.399Z,15.3
2023-03-03T17:20:19.828Z,15.3
2023-03-03T17:30:22.170Z,15.2
2023-03-03T17:40:19.424Z,15.2
2023-03-03T17:50:20.147Z,15.1
2023-03-03T18:00:19.983Z,15.2
2023-03-03T18:10:20.111Z,15.1
2023-03-03T18:20:20.197Z,15.3
2023-03-03T18:30:20.744Z,15.2
2023-03-03T18:40:20.698Z,15.3
2023-03-03T18:50:20.918Z,15.1
2023-03-03T19:00:21.369Z,15.6
2023-03-03T19:10:21.794Z,15.1
2023-03-03T19:20:21.700Z,15.3
2023-03-03T19:30:23.113Z,15.1
2023-03-03T19:40:22.274Z,15.2
2023-03-03T19:50:22.246Z,15.2
2023-03-03T20:00:22.729Z,15.6
2023-03-03T20:10:23.132Z,15.1
2023-03-03T20:20:23.878Z,15.1
2023-03-03T20:30:23.878Z,15.3
2023-03-03T20:40:24.325Z,15.1
2023-03-03T20:50:25.462Z,15.1
2023-03-03T21:10:08.026Z,15.1
2023-03-03T21:20:08.546Z,15.1
2023-03-03T21:30:08.938Z,15.5
2023-03-03T21:40:09.561Z,15.3
2023-03-03T21:50:10.850Z,15
2023-03-03T22:00:11.351Z,15.4
2023-03-03T22:10:13.076Z,15.6
2023-03-03T22:20:15.896Z,15.4
2023-03-03T22:30:17.826Z,15.1
2023-03-03T22:40:19.586Z,15.1
2023-03-03T22:50:21.378Z,15.1
2023-03-03T23:00:21.909Z,15.1
2023-03-03T23:10:22.668Z,15
2023-03-03T23:20:24.280Z,15.1
2023-03-03T23:30:23.504Z,15
2023-03-03T23:40:23.789Z,15
2023-03-03T23:50:24.217Z,15.1
